Time;durP1;ratioP1;P1;durP2;ratioP2;P2;SDS_P1;SDS_P2;PMS_P1;PMS_P2;Temp;Humidity;BMP_temperature;BMP_pressure;BME280_temperature;BME280_humidity;BME280_pressure;Samples;Min_cycle;Max_cycle;Signal;HPM_P1;HPM_P2
2022/07/07 00:01:57;;;;;;;11.40;1.60;;;;;;;;;;5006294;28;20034;-61
2022/07/07 00:04:24;;;;;;;1.47;0.70;;;;;;;;;;5006591;28;20042;-61
2022/07/07 00:06:51;;;;;;;1.00;0.80;;;;;;;;;;5006779;28;20061;-61
2022/07/07 00:09:17;;;;;;;1.77;0.80;;;;;;;;;;5006283;28;20033;-61
2022/07/07 00:11:44;;;;;;;4.90;1.80;;;;;;;;;;5010792;28;20439;-61
2022/07/07 00:14:11;;;;;;;1.93;1.00;;;;;;;;;;5011521;28;20477;-61
2022/07/07 00:16:38;;;;;;;2.30;1.13;;;;;;;;;;5011019;28;20206;-60
2022/07/07 00:19:05;;;;;;;1.27;0.70;;;;;;;;;;5011631;28;20033;-61
2022/07/07 00:21:32;;;;;;;0.77;0.50;;;;;;;;;;5011442;28;20037;-61
2022/07/07 00:23:59;;;;;;;1.10;0.60;;;;;;;;;;5006862;28;20496;-62
2022/07/07 00:26:26;;;;;;;1.03;0.70;;;;;;;;;;5005722;28;20130;-61
2022/07/07 00:28:52;;;;;;;2.60;0.67;;;;;;;;;;5006354;28;20036;-60
2022/07/07 00:31:19;;;;;;;5.23;1.30;;;;;;;;;;5006193;28;20396;-62
2022/07/07 00:33:46;;;;;;;2.40;0.73;;;;;;;;;;5009574;28;20358;-61
2022/07/07 00:36:12;;;;;;;9.27;0.63;;;;;;;;;;5014808;28;20535;-61
2022/07/07 00:38:40;;;;;;;0.80;0.50;;;;;;;;;;5014900;28;20583;-60
2022/07/07 00:41:06;;;;;;;1.60;0.73;;;;;;;;;;5015331;28;20104;-61
2022/07/07 00:43:40;;;;;;;2.10;1.20;;;;;;;;;;5014698;28;20025;-60
2022/07/07 00:46:07;;;;;;;5.50;1.50;;;;;;;;;;5011066;28;20492;-61
2022/07/07 00:48:35;;;;;;;1.40;0.90;;;;;;;;;;4993366;28;20100;-60
2022/07/07 00:51:03;;;;;;;2.70;1.27;;;;;;;;;;5009364;28;20049;-60
2022/07/07 00:53:29;;;;;;;2.97;1.13;;;;;;;;;;5009415;28;20553;-60
2022/07/07 00:55:56;;;;;;;11.87;1.80;;;;;;;;;;5012921;28;20028;-61
2022/07/07 00:58:23;;;;;;;3.63;1.80;;;;;;;;;;5014545;28;20033;-60
2022/07/07 01:00:50;;;;;;;2.80;1.80;;;;;;;;;;5014652;28;20473;-61
2022/07/07 01:03:17;;;;;;;6.40;2.37;;;;;;;;;;5014531;28;20037;-61
2022/07/07 01:05:46;;;;;;;5.97;1.20;;;;;;;;;;5014053;28;20105;-61
2022/07/07 01:08:16;;;;;;;3.40;1.53;;;;;;;;;;5010861;28;20025;-61
2022/07/07 01:10:46;;;;;;;1.77;1.00;;;;;;;;;;5009171;28;20030;-61
2022/07/07 01:13:13;;;;;;;1.60;1.00;;;;;;;;;;5009247;28;20022;-60
2022/07/07 01:15:39;;;;;;;2.93;1.23;;;;;;;;;;5008964;28;20559;-60
2022/07/07 01:18:06;;;;;;;3.60;1.37;;;;;;;;;;5011778;28;20069;-60
2022/07/07 01:20:33;;;;;;;1.53;1.07;;;;;;;;;;5013625;28;20496;-60
2022/07/07 01:23:00;;;;;;;3.33;1.20;;;;;;;;;;5014136;28;20374;-60
2022/07/07 01:25:27;;;;;;;1.67;1.00;;;;;;;;;;5014133;28;20560;-60
2022/07/07 01:27:53;;;;;;;3.40;1.50;;;;;;;;;;5014011;28;20334;-60
2022/07/07 01:30:20;;;;;;;5.10;1.37;;;;;;;;;;5010456;28;20389;-60
2022/07/07 01:32:47;;;;;;;1.70;0.80;;;;;;;;;;5009040;28;20026;-60
2022/07/07 01:35:14;;;;;;;5.43;1.40;;;;;;;;;;5008566;28;20026;-60
2022/07/07 01:37:40;;;;;;;0.73;0.70;;;;;;;;;;5008281;28;20041;-60
2022/07/07 01:40:07;;;;;;;2.37;1.20;;;;;;;;;;5011089;28;20479;-60
2022/07/07 01:42:34;;;;;;;1.73;0.80;;;;;;;;;;5013715;28;20121;-60
2022/07/07 01:45:01;;;;;;;2.67;1.50;;;;;;;;;;5013556;28;20018;-60
2022/07/07 01:47:27;;;;;;;1.97;1.03;;;;;;;;;;5013095;28;20026;-61
2022/07/07 01:49:54;;;;;;;7.70;1.10;;;;;;;;;;5012740;28;20475;-60
2022/07/07 01:52:21;;;;;;;1.57;0.90;;;;;;;;;;5011017;28;20105;-61
2022/07/07 01:54:47;;;;;;;3.20;1.57;;;;;;;;;;5008253;28;20393;-61
2022/07/07 01:57:14;;;;;;;1.43;1.03;;;;;;;;;;5007925;28;20032;-60
2022/07/07 01:59:41;;;;;;;3.03;1.47;;;;;;;;;;5008175;28;20809;-60
2022/07/07 02:02:08;;;;;;;2.97;1.37;;;;;;;;;;5010519;28;20033;-60
2022/07/07 02:04:34;;;;;;;1.90;1.07;;;;;;;;;;5013246;28;20088;-60
2022/07/07 02:07:01;;;;;;;1.27;1.07;;;;;;;;;;5013693;28;20032;-60
2022/07/07 02:09:28;;;;;;;1.77;0.77;;;;;;;;;;5013717;28;20026;-60
2022/07/07 02:11:57;;;;;;;2.30;1.07;;;;;;;;;;5012676;28;20049;-60
2022/07/07 02:14:23;;;;;;;3.03;1.20;;;;;;;;;;5010681;28;20432;-60
2022/07/07 02:16:50;;;;;;;5.40;2.07;;;;;;;;;;5007974;28;20034;-61
2022/07/07 02:19:17;;;;;;;1.60;1.03;;;;;;;;;;5007787;28;20057;-61
2022/07/07 02:21:43;;;;;;;2.77;1.20;;;;;;;;;;5007941;28;20105;-60
2022/07/07 02:24:10;;;;;;;0.80;0.73;;;;;;;;;;5009471;28;20022;-60
2022/07/07 02:26:37;;;;;;;4.00;1.30;;;;;;;;;;5013061;28;20029;-60
2022/07/07 02:29:04;;;;;;;1.90;1.20;;;;;;;;;;5012081;28;20487;-60
2022/07/07 02:31:31;;;;;;;1.97;0.77;;;;;;;;;;5012770;28;20378;-61
2022/07/07 02:33:57;;;;;;;1.37;0.90;;;;;;;;;;5012875;28;20465;-60
2022/07/07 02:36:24;;;;;;;2.87;1.07;;;;;;;;;;5011172;28;20362;-62
2022/07/07 02:38:51;;;;;;;1.67;0.80;;;;;;;;;;5007505;28;20369;-60
2022/07/07 02:41:19;;;;;;;1.57;1.13;;;;;;;;;;5007367;28;20083;-61
2022/07/07 02:43:46;;;;;;;1.30;0.80;;;;;;;;;;5006273;28;20036;-60
2022/07/07 02:46:12;;;;;;;0.93;0.57;;;;;;;;;;5008462;28;20058;-60
2022/07/07 02:48:39;;;;;;;1.37;0.87;;;;;;;;;;5012710;28;20026;-60
2022/07/07 02:51:06;;;;;;;0.67;0.60;;;;;;;;;;5004024;28;20367;-61
2022/07/07 02:53:34;;;;;;;4.53;1.30;;;;;;;;;;5002333;28;20422;-62
2022/07/07 02:56:01;;;;;;;1.23;1.00;;;;;;;;;;4999936;28;20049;-62
2022/07/07 02:58:28;;;;;;;1.33;0.40;;;;;;;;;;5007886;28;20133;-61
2022/07/07 03:00:54;;;;;;;0.63;0.57;;;;;;;;;;5006727;28;20091;-62
2022/07/07 03:03:21;;;;;;;6.33;1.97;;;;;;;;;;5007342;28;20124;-61
2022/07/07 03:05:48;;;;;;;2.77;1.20;;;;;;;;;;5006858;28;20120;-61
2022/07/07 03:08:15;;;;;;;3.17;1.13;;;;;;;;;;4999682;28;20030;-61
2022/07/07 03:10:42;;;;;;;3.80;0.90;;;;;;;;;;5011025;28;20030;-60
2022/07/07 03:13:09;;;;;;;3.67;1.77;;;;;;;;;;5012531;28;20037;-61
2022/07/07 03:15:36;;;;;;;2.53;1.03;;;;;;;;;;5012317;28;20030;-60
2022/07/07 03:18:02;;;;;;;5.17;1.80;;;;;;;;;;5012135;28;20030;-61
2022/07/07 03:20:29;;;;;;;3.27;1.80;;;;;;;;;;5011128;28;20183;-61
2022/07/07 03:22:56;;;;;;;2.80;1.47;;;;;;;;;;5007059;28;20359;-61
2022/07/07 03:25:22;;;;;;;5.77;2.93;;;;;;;;;;5007170;28;20108;-61
2022/07/07 03:27:49;;;;;;;16.13;2.23;;;;;;;;;;5006843;28;20030;-61
2022/07/07 03:30:16;;;;;;;2.33;1.60;;;;;;;;;;5007300;28;20116;-61
2022/07/07 03:32:42;;;;;;;2.13;1.13;;;;;;;;;;5011855;28;20034;-60
2022/07/07 03:35:09;;;;;;;2.27;1.20;;;;;;;;;;5011721;28;20069;-60
2022/07/07 03:37:36;;;;;;;5.73;2.00;;;;;;;;;;5011873;28;21731;-61
2022/07/07 03:40:03;;;;;;;11.47;2.30;;;;;;;;;;5012063;28;20018;-61
2022/07/07 03:42:30;;;;;;;2.83;1.90;;;;;;;;;;5011474;28;20441;-60
2022/07/07 03:44:57;;;;;;;2.57;1.40;;;;;;;;;;5006731;28;20025;-61
2022/07/07 03:47:24;;;;;;;1.53;1.03;;;;;;;;;;5007171;28;20017;-61
2022/07/07 03:49:50;;;;;;;9.73;2.00;;;;;;;;;;5006875;28;20822;-62
2022/07/07 03:52:17;;;;;;;1.90;1.47;;;;;;;;;;5006212;28;20378;-62
2022/07/07 03:54:44;;;;;;;6.50;1.67;;;;;;;;;;5012014;28;20030;-61
2022/07/07 03:57:10;;;;;;;7.83;1.60;;;;;;;;;;5011785;28;20037;-61
2022/07/07 03:59:37;;;;;;;6.23;2.20;;;;;;;;;;5011335;28;20034;-61
2022/07/07 04:02:04;;;;;;;3.23;1.93;;;;;;;;;;5011669;28;20018;-61
2022/07/07 04:04:30;;;;;;;2.53;1.70;;;;;;;;;;5011628;28;20037;-60
2022/07/07 04:06:57;;;;;;;4.10;1.97;;;;;;;;;;5006319;28;20084;-61
2022/07/07 04:09:24;;;;;;;13.00;1.60;;;;;;;;;;5007689;28;20496;-62
2022/07/07 04:11:51;;;;;;;3.87;1.97;;;;;;;;;;5010320;28;20061;-60
2022/07/07 04:14:19;;;;;;;4.03;2.10;;;;;;;;;;5009301;28;20049;-61
2022/07/07 04:16:46;;;;;;;1.27;0.97;;;;;;;;;;5014514;28;20079;-61
2022/07/07 04:19:13;;;;;;;2.33;1.07;;;;;;;;;;5015421;28;20116;-60
2022/07/07 04:21:40;;;;;;;2.43;1.60;;;;;;;;;;5015324;28;20026;-61
2022/07/07 04:24:06;;;;;;;3.07;2.00;;;;;;;;;;5014810;28;20532;-60
2022/07/07 04:26:33;;;;;;;9.20;1.90;;;;;;;;;;5015416;28;20033;-60
2022/07/07 04:29:00;;;;;;;5.90;1.63;;;;;;;;;;5010226;28;20152;-61
2022/07/07 04:31:27;;;;;;;2.10;1.17;;;;;;;;;;5009993;28;20033;-60
2022/07/07 04:33:54;;;;;;;1.13;1.00;;;;;;;;;;5009967;28;20105;-60
2022/07/07 04:36:21;;;;;;;10.90;1.60;;;;;;;;;;5009953;28;20139;-60
2022/07/07 04:38:47;;;;;;;1.90;1.27;;;;;;;;;;5013852;28;20539;-60
2022/07/07 04:41:14;;;;;;;1.57;1.00;;;;;;;;;;5014890;28;20076;-60
2022/07/07 04:43:41;;;;;;;6.77;2.60;;;;;;;;;;5014639;28;20034;-60
2022/07/07 04:46:07;;;;;;;29.17;1.80;;;;;;;;;;5015138;28;20042;-61
2022/07/07 04:48:34;;;;;;;3.30;2.17;;;;;;;;;;5014886;28;20030;-62
2022/07/07 04:51:01;;;;;;;3.10;1.30;;;;;;;;;;4990969;28;20492;-60
2022/07/07 04:53:28;;;;;;;4.63;1.60;;;;;;;;;;4990309;28;20030;-60
2022/07/07 04:55:54;;;;;;;1.83;1.20;;;;;;;;;;4989957;28;20027;-60
2022/07/07 04:58:21;;;;;;;3.57;1.77;;;;;;;;;;4989840;28;20038;-61
2022/07/07 05:00:48;;;;;;;4.13;2.30;;;;;;;;;;4997318;28;20022;-61
2022/07/07 05:03:14;;;;;;;2.20;1.37;;;;;;;;;;5014560;28;20381;-60
2022/07/07 05:05:41;;;;;;;4.67;1.53;;;;;;;;;;5014234;28;20030;-60
2022/07/07 05:08:08;;;;;;;1.70;1.40;;;;;;;;;;5014544;28;20462;-60
2022/07/07 05:10:34;;;;;;;3.63;2.13;;;;;;;;;;5014472;28;20034;-60
2022/07/07 05:13:01;;;;;;;5.07;1.83;;;;;;;;;;5010295;28;20391;-60
2022/07/07 05:15:28;;;;;;;1.67;1.27;;;;;;;;;;5009066;28;20018;-60
2022/07/07 05:17:55;;;;;;;11.47;1.83;;;;;;;;;;5008904;28;20560;-60
2022/07/07 05:20:21;;;;;;;2.17;1.20;;;;;;;;;;5008536;28;20145;-60
2022/07/07 05:22:48;;;;;;;4.87;2.00;;;;;;;;;;5011614;28;20034;-60
2022/07/07 05:25:15;;;;;;;7.00;1.83;;;;;;;;;;5014321;28;20481;-60
2022/07/07 05:27:44;;;;;;;1.20;1.10;;;;;;;;;;5014443;28;20030;-60
2022/07/07 05:30:12;;;;;;;1.00;0.93;;;;;;;;;;5013890;28;20100;-60
2022/07/07 05:32:38;;;;;;;10.47;1.53;;;;;;;;;;5013916;28;20054;-60
2022/07/07 05:35:05;;;;;;;3.10;1.80;;;;;;;;;;5010456;28;20054;-61
2022/07/07 05:37:32;;;;;;;3.03;1.70;;;;;;;;;;5008750;28;20064;-60
2022/07/07 05:39:59;;;;;;;1.67;1.27;;;;;;;;;;5008036;28;20374;-60
2022/07/07 05:42:26;;;;;;;2.60;1.60;;;;;;;;;;5008958;28;20488;-60
2022/07/07 05:44:53;;;;;;;2.17;1.57;;;;;;;;;;5010819;28;20113;-60
2022/07/07 05:47:20;;;;;;;3.27;1.63;;;;;;;;;;5013948;28;20026;-60
2022/07/07 05:49:46;;;;;;;2.27;1.10;;;;;;;;;;5014097;28;20373;-60
2022/07/07 05:52:13;;;;;;;3.13;1.60;;;;;;;;;;5013275;28;20057;-60
2022/07/07 05:54:40;;;;;;;1.87;1.40;;;;;;;;;;5013749;28;20105;-60
2022/07/07 05:57:06;;;;;;;2.57;1.30;;;;;;;;;;5010422;28;20079;-60
2022/07/07 05:59:33;;;;;;;2.87;1.73;;;;;;;;;;5007961;28;20041;-60
2022/07/07 06:02:00;;;;;;;2.23;1.10;;;;;;;;;;5007807;28;20025;-60
2022/07/07 06:04:27;;;;;;;1.57;0.90;;;;;;;;;;5008159;28;20504;-60
2022/07/07 06:06:54;;;;;;;1.80;1.17;;;;;;;;;;5010346;28;20033;-60
2022/07/07 06:09:20;;;;;;;3.20;1.40;;;;;;;;;;5012565;28;20097;-60
2022/07/07 06:11:47;;;;;;;3.63;1.50;;;;;;;;;;5013338;28;20030;-60
2022/07/07 06:14:14;;;;;;;1.97;1.37;;;;;;;;;;5012420;28;20029;-60
2022/07/07 06:16:41;;;;;;;3.57;1.47;;;;;;;;;;5012920;28;20054;-61
2022/07/07 06:19:08;;;;;;;2.03;1.33;;;;;;;;;;5010453;28;20113;-60
2022/07/07 06:21:35;;;;;;;3.17;1.80;;;;;;;;;;5008094;28;20359;-60
2022/07/07 06:24:02;;;;;;;1.83;1.33;;;;;;;;;;5007762;28;20087;-60
2022/07/07 06:26:29;;;;;;;9.37;1.60;;;;;;;;;;5008121;28;20053;-61
2022/07/07 06:28:56;;;;;;;2.37;1.43;;;;;;;;;;5009745;28;20033;-60
2022/07/07 06:31:23;;;;;;;3.43;1.37;;;;;;;;;;5013037;28;20026;-60
2022/07/07 06:33:49;;;;;;;8.67;1.47;;;;;;;;;;5012317;28;20080;-60
2022/07/07 06:36:16;;;;;;;2.37;1.33;;;;;;;;;;5013018;28;20030;-60
2022/07/07 06:38:43;;;;;;;15.20;1.47;;;;;;;;;;5012631;28;20030;-60
2022/07/07 06:41:10;;;;;;;2.17;1.50;;;;;;;;;;5010262;28;20464;-60
2022/07/07 06:43:37;;;;;;;3.60;1.20;;;;;;;;;;5007519;28;20030;-60
2022/07/07 06:46:03;;;;;;;2.57;1.47;;;;;;;;;;5007121;28;20465;-60
2022/07/07 06:48:30;;;;;;;1.10;0.93;;;;;;;;;;5007550;28;20033;-60
2022/07/07 06:50:57;;;;;;;7.07;1.67;;;;;;;;;;5008521;28;20065;-60
2022/07/07 06:53:24;;;;;;;3.27;1.30;;;;;;;;;;5012729;28;20079;-60
2022/07/07 06:55:50;;;;;;;2.70;1.47;;;;;;;;;;4993288;28;20035;-60
2022/07/07 06:58:17;;;;;;;6.00;1.50;;;;;;;;;;4992998;28;20042;-60
2022/07/07 07:00:44;;;;;;;1.33;1.07;;;;;;;;;;5010848;28;20029;-60
2022/07/07 07:03:11;;;;;;;2.13;1.20;;;;;;;;;;5010442;28;20049;-60
2022/07/07 07:05:38;;;;;;;1.27;0.93;;;;;;;;;;5006910;28;20029;-60
2022/07/07 07:08:05;;;;;;;5.23;2.00;;;;;;;;;;5006877;28;20080;-60
2022/07/07 07:10:32;;;;;;;4.23;1.73;;;;;;;;;;5007046;28;20034;-60
2022/07/07 07:12:58;;;;;;;4.30;1.30;;;;;;;;;;5008574;28;20108;-60
2022/07/07 07:15:25;;;;;;;1.90;1.47;;;;;;;;;;5011972;28;20022;-60
2022/07/07 07:17:52;;;;;;;3.63;1.53;;;;;;;;;;5012426;28;20021;-60
2022/07/07 07:20:19;;;;;;;1.43;1.27;;;;;;;;;;5012162;28;20034;-60
2022/07/07 07:22:45;;;;;;;1.90;1.37;;;;;;;;;;5011837;28;20389;-60
2022/07/07 07:25:12;;;;;;;1.97;1.50;;;;;;;;;;5010923;28;20033;-60
2022/07/07 07:27:39;;;;;;;4.07;1.93;;;;;;;;;;5006932;28;20022;-60
2022/07/07 07:30:06;;;;;;;2.50;1.40;;;;;;;;;;5007134;28;20029;-60
2022/07/07 07:32:33;;;;;;;4.20;2.10;;;;;;;;;;5007069;28;20033;-60
2022/07/07 07:34:59;;;;;;;1.47;1.03;;;;;;;;;;5007620;28;20033;-60
2022/07/07 07:37:26;;;;;;;1.87;1.33;;;;;;;;;;5011881;28;20044;-60
2022/07/07 07:39:53;;;;;;;3.13;1.73;;;;;;;;;;5011651;28;20292;-61
2022/07/07 07:42:19;;;;;;;1.67;1.53;;;;;;;;;;5012552;28;20388;-60
2022/07/07 07:47:31;;;;;;;5.68;1.70;;;;;;;;;;5014262;28;20048;-61
2022/07/07 07:49:58;;;;;;;4.63;1.83;;;;;;;;;;5009712;28;20044;-60
2022/07/07 07:52:25;;;;;;;1.73;1.23;;;;;;;;;;5010630;28;20032;-60
2022/07/07 07:54:52;;;;;;;1.47;1.10;;;;;;;;;;5010223;28;20033;-61
2022/07/07 07:57:19;;;;;;;1.23;1.00;;;;;;;;;;5011538;28;20061;-60
2022/07/07 07:59:46;;;;;;;4.57;1.93;;;;;;;;;;5015665;28;20985;-60
2022/07/07 08:02:13;;;;;;;3.53;1.60;;;;;;;;;;5016178;28;20026;-60
2022/07/07 08:04:39;;;;;;;1.43;1.10;;;;;;;;;;5015743;28;20061;-60
2022/07/07 08:07:06;;;;;;;2.73;1.47;;;;;;;;;;5015589;28;20449;-60
2022/07/07 08:09:33;;;;;;;5.73;2.23;;;;;;;;;;5014659;28;20458;-60
2022/07/07 08:12:00;;;;;;;1.73;1.33;;;;;;;;;;5009938;28;20037;-61
2022/07/07 08:14:26;;;;;;;2.70;1.90;;;;;;;;;;5010172;28;20100;-60
2022/07/07 08:16:53;;;;;;;2.93;1.57;;;;;;;;;;5010341;28;20034;-61
2022/07/07 08:19:20;;;;;;;3.20;1.60;;;;;;;;;;5009575;28;20096;-60
2022/07/07 08:21:47;;;;;;;2.10;1.37;;;;;;;;;;5015671;28;20141;-61
2022/07/07 08:24:14;;;;;;;1.57;1.33;;;;;;;;;;5014884;28;20080;-60
2022/07/07 08:26:41;;;;;;;3.07;1.30;;;;;;;;;;5015320;28;20026;-60
2022/07/07 08:29:08;;;;;;;3.23;1.90;;;;;;;;;;5015166;28;20021;-61
2022/07/07 08:31:34;;;;;;;4.07;1.77;;;;;;;;;;4995485;28;20098;-61
2022/07/07 08:34:01;;;;;;;2.07;1.47;;;;;;;;;;4996231;28;20025;-60
2022/07/07 08:36:30;;;;;;;1.50;1.40;;;;;;;;;;5010291;28;20079;-60
2022/07/07 08:38:57;;;;;;;14.83;2.20;;;;;;;;;;5009244;28;20069;-60
2022/07/07 08:41:25;;;;;;;2.00;1.50;;;;;;;;;;5009842;28;20136;-60
2022/07/07 08:43:51;;;;;;;2.77;1.70;;;;;;;;;;5014657;28;20389;-60
2022/07/07 08:46:18;;;;;;;5.33;2.67;;;;;;;;;;5015087;28;20037;-61
2022/07/07 08:48:45;;;;;;;2.97;1.93;;;;;;;;;;5014845;28;20136;-61
2022/07/07 08:51:12;;;;;;;2.27;1.60;;;;;;;;;;5014828;28;20026;-61
2022/07/07 08:53:39;;;;;;;1.70;1.30;;;;;;;;;;5014692;28;20018;-60
2022/07/07 08:56:07;;;;;;;1.63;1.43;;;;;;;;;;4996243;28;20477;-61
2022/07/07 08:58:35;;;;;;;1.97;1.40;;;;;;;;;;5009371;28;20049;-60
2022/07/07 09:01:06;;;;;;;9.57;1.17;;;;;;;;;;5009377;28;20037;-60
2022/07/07 09:03:33;;;;;;;2.87;1.83;;;;;;;;;;5008810;28;20497;-60
2022/07/07 09:06:00;;;;;;;1.80;1.50;;;;;;;;;;5014737;28;20045;-60
2022/07/07 09:08:27;;;;;;;3.30;1.60;;;;;;;;;;5014538;28;20025;-60
2022/07/07 09:10:54;;;;;;;2.93;1.33;;;;;;;;;;5014297;28;20396;-60
2022/07/07 09:13:22;;;;;;;2.07;1.20;;;;;;;;;;5013955;28;20033;-61
2022/07/07 09:15:50;;;;;;;2.40;1.97;;;;;;;;;;5014451;28;20045;-60
2022/07/07 09:18:28;;;;;;;2.57;1.40;;;;;;;;;;5009188;28;20056;-61
2022/07/07 09:20:55;;;;;;;1.77;1.37;;;;;;;;;;5009300;28;20044;-60
2022/07/07 09:23:22;;;;;;;2.33;1.57;;;;;;;;;;5008749;28;20388;-61
2022/07/07 09:25:49;;;;;;;2.57;1.87;;;;;;;;;;5009079;28;20397;-60
2022/07/07 09:28:16;;;;;;;5.33;2.40;;;;;;;;;;5014033;28;20417;-60
2022/07/07 09:30:43;;;;;;;2.53;1.83;;;;;;;;;;5014080;28;20515;-61
2022/07/07 09:33:15;;;;;;;1.50;1.30;;;;;;;;;;5014157;28;20062;-60
2022/07/07 09:38:32;;;;;;;3.53;1.43;;;;;;;;;;5012621;28;20044;-60
2022/07/07 09:41:08;;;;;;;1.43;1.00;;;;;;;;;;5008800;28;20026;-60
2022/07/07 17:21:12;;;;;;;1.13;0.93;;;;;;;;;;5168846;27;20370;-62
2022/07/07 17:23:38;;;;;;;1.67;0.80;;;;;;;;;;5049423;27;2184136;-62
2022/07/07 17:26:05;;;;;;;1.20;0.90;;;;;;;;;;5084316;28;20425;-62
2022/07/07 17:28:32;;;;;;;1.90;0.70;;;;;;;;;;5083420;28;20021;-62
2022/07/07 17:30:59;;;;;;;1.07;0.80;;;;;;;;;;5083103;28;20096;-62
2022/07/07 17:33:26;;;;;;;2.57;1.00;;;;;;;;;;5100693;28;20023;-62
2022/07/07 17:35:53;;;;;;;0.87;0.67;;;;;;;;;;5109179;28;20488;-62
2022/07/07 17:38:20;;;;;;;0.67;0.43;;;;;;;;;;5109783;28;20020;-62
2022/07/07 17:40:47;;;;;;;0.77;0.60;;;;;;;;;;5109679;28;20020;-62
2022/07/07 17:43:13;;;;;;;0.60;0.50;;;;;;;;;;5098739;28;20428;-62
2022/07/07 17:45:40;;;;;;;2.00;1.17;;;;;;;;;;5083782;28;20077;-62
2022/07/07 17:48:07;;;;;;;3.20;1.40;;;;;;;;;;5083518;28;20065;-62
2022/07/07 17:50:34;;;;;;;1.67;1.10;;;;;;;;;;5082981;28;20053;-62
2022/07/07 17:53:01;;;;;;;2.27;1.20;;;;;;;;;;5090759;28;20043;-62
2022/07/07 17:55:28;;;;;;;2.83;1.33;;;;;;;;;;5109512;28;20046;-62
2022/07/07 17:57:54;;;;;;;2.03;0.90;;;;;;;;;;5109361;28;20076;-62
2022/07/07 18:00:21;;;;;;;1.80;1.03;;;;;;;;;;5108934;28;20026;-62
2022/07/07 18:02:48;;;;;;;1.27;0.90;;;;;;;;;;5103614;28;20022;-62
2022/07/07 18:05:14;;;;;;;2.00;0.87;;;;;;;;;;5087623;28;20115;-62
2022/07/07 18:07:41;;;;;;;2.23;1.00;;;;;;;;;;5100464;28;20035;-62
2022/07/07 18:10:08;;;;;;;1.50;0.77;;;;;;;;;;5103522;28;20113;-63
2022/07/07 18:12:35;;;;;;;2.20;1.30;;;;;;;;;;5103646;28;20575;-62
2022/07/07 18:15:01;;;;;;;1.73;1.07;;;;;;;;;;5103347;28;20412;-62
2022/07/07 18:17:28;;;;;;;1.87;1.30;;;;;;;;;;5093519;28;20020;-62
2022/07/07 18:19:55;;;;;;;1.40;0.90;;;;;;;;;;5088321;28;20039;-62
2022/07/07 18:22:22;;;;;;;9.63;0.87;;;;;;;;;;5074283;28;20146;-62
2022/07/07 18:24:48;;;;;;;1.03;0.60;;;;;;;;;;5074681;28;20086;-62
2022/07/07 18:27:15;;;;;;;2.00;0.97;;;;;;;;;;5087218;28;20026;-62
2022/07/07 18:29:42;;;;;;;1.47;0.87;;;;;;;;;;5089394;28;20028;-62
2022/07/07 18:32:08;;;;;;;2.60;0.80;;;;;;;;;;5089557;28;20618;-62
2022/07/07 18:34:35;;;;;;;3.70;1.30;;;;;;;;;;5089437;28;20048;-62
2022/07/07 18:37:02;;;;;;;6.00;0.77;;;;;;;;;;5078553;28;20111;-62
2022/07/07 18:39:29;;;;;;;3.03;0.87;;;;;;;;;;5074267;28;20052;-62
2022/07/07 18:41:55;;;;;;;7.80;0.90;;;;;;;;;;5074557;28;20530;-62
2022/07/07 18:44:22;;;;;;;1.33;1.00;;;;;;;;;;5074477;28;20467;-63
2022/07/07 18:46:49;;;;;;;2.30;1.10;;;;;;;;;;5082191;28;20043;-62
2022/07/07 18:49:15;;;;;;;0.60;0.50;;;;;;;;;;5094647;28;20036;-62
2022/07/07 18:51:42;;;;;;;1.60;0.80;;;;;;;;;;5076726;28;20021;-63
2022/07/07 18:54:10;;;;;;;1.60;0.90;;;;;;;;;;5068583;28;20059;-62
2022/07/07 18:56:37;;;;;;;1.77;0.60;;;;;;;;;;5068866;28;20032;-62
2022/07/07 18:59:07;;;;;;;0.93;0.73;;;;;;;;;;5068878;28;20085;-63
2022/07/07 19:01:34;;;;;;;0.43;0.40;;;;;;;;;;5083392;28;20051;-63
2022/07/07 19:04:00;;;;;;;1.50;0.70;;;;;;;;;;5094511;28;20024;-62
2022/07/07 19:06:27;;;;;;;0.90;0.67;;;;;;;;;;5094447;28;20051;-62
2022/07/07 19:08:54;;;;;;;1.30;0.70;;;;;;;;;;5093904;28;20056;-62
2022/07/07 19:11:27;;;;;;;3.20;0.70;;;;;;;;;;5086124;28;20032;-62
2022/07/07 19:13:54;;;;;;;0.77;0.60;;;;;;;;;;5072621;28;20513;-63
2022/07/07 19:16:20;;;;;;;1.00;0.90;;;;;;;;;;5088472;28;20043;-62
2022/07/07 19:18:48;;;;;;;2.07;0.90;;;;;;;;;;5088827;28;20059;-63
2022/07/07 19:21:14;;;;;;;1.47;0.80;;;;;;;;;;5088166;28;20533;-63
2022/07/07 19:23:41;;;;;;;0.67;0.60;;;;;;;;;;5091314;28;20103;-62
2022/07/07 19:26:08;;;;;;;0.90;0.73;;;;;;;;;;5073589;28;20021;-62
2022/07/07 19:28:34;;;;;;;1.37;0.80;;;;;;;;;;5074730;28;20032;-63
2022/07/07 19:31:03;;;;;;;3.40;1.00;;;;;;;;;;5093960;28;20537;-62
2022/07/07 19:33:29;;;;;;;3.97;1.17;;;;;;;;;;5092914;28;20103;-62
2022/07/07 19:35:56;;;;;;;0.70;0.67;;;;;;;;;;5088679;28;20024;-62
2022/07/07 19:38:23;;;;;;;1.50;0.87;;;;;;;;;;5087952;28;20443;-62
2022/07/07 19:40:49;;;;;;;1.57;1.23;;;;;;;;;;5068839;28;20443;-63
2022/07/07 19:43:16;;;;;;;4.33;0.97;;;;;;;;;;5067729;28;20483;-62
2022/07/07 19:45:43;;;;;;;1.53;0.63;;;;;;;;;;5072098;28;20017;-62
2022/07/07 19:48:09;;;;;;;2.40;1.07;;;;;;;;;;5073414;28;20059;-62
2022/07/07 19:50:36;;;;;;;5.10;1.47;;;;;;;;;;5077549;28;20025;-62
2022/07/07 19:53:03;;;;;;;1.27;0.87;;;;;;;;;;5082042;28;20024;-63
2022/07/07 19:55:30;;;;;;;2.03;0.97;;;;;;;;;;5093651;28;20069;-62
2022/07/07 19:57:56;;;;;;;0.60;0.60;;;;;;;;;;5088900;28;20031;-63
2022/07/07 20:00:23;;;;;;;1.50;1.00;;;;;;;;;;5072326;28;20033;-62
2022/07/07 20:02:50;;;;;;;4.33;1.27;;;;;;;;;;5067562;28;20028;-63
2022/07/07 20:05:17;;;;;;;0.80;0.63;;;;;;;;;;5067423;28;20025;-62
2022/07/07 20:07:45;;;;;;;0.80;0.70;;;;;;;;;;5071171;28;20024;-62
2022/07/07 20:10:12;;;;;;;1.33;0.67;;;;;;;;;;5085252;28;20032;-62
2022/07/07 20:12:38;;;;;;;1.53;0.70;;;;;;;;;;5092996;28;20052;-62
2022/07/07 20:15:05;;;;;;;1.53;1.10;;;;;;;;;;5093056;28;20073;-62
2022/07/07 20:17:32;;;;;;;0.90;0.80;;;;;;;;;;5092884;28;20030;-62
2022/07/07 20:19:58;;;;;;;1.30;1.13;;;;;;;;;;5077460;28;20352;-62
2022/07/07 20:22:25;;;;;;;2.33;1.00;;;;;;;;;;5067066;28;20540;-62
2022/07/07 20:24:53;;;;;;;4.33;1.07;;;;;;;;;;5066930;28;20051;-62
2022/07/07 20:27:20;;;;;;;1.83;1.00;;;;;;;;;;5066899;28;20078;-63
2022/07/07 20:29:48;;;;;;;1.63;0.90;;;;;;;;;;5079237;28;20047;-62
2022/07/07 20:32:15;;;;;;;4.67;1.20;;;;;;;;;;5092939;28;20534;-62
2022/07/07 20:34:42;;;;;;;1.57;1.10;;;;;;;;;;5092563;28;20023;-63
2022/07/07 20:37:09;;;;;;;1.20;0.90;;;;;;;;;;5092782;28;20024;-62
2022/07/07 20:39:35;;;;;;;1.30;0.90;;;;;;;;;;5084938;28;20048;-62
2022/07/07 20:42:02;;;;;;;1.97;0.60;;;;;;;;;;5068342;28;20028;-62
2022/07/07 20:44:29;;;;;;;2.57;0.93;;;;;;;;;;5066671;28;20058;-62
2022/07/07 20:46:56;;;;;;;2.87;1.23;;;;;;;;;;5066699;28;20032;-62
2022/07/07 20:49:26;;;;;;;7.33;1.43;;;;;;;;;;5071880;28;20063;-62
2022/07/07 20:51:54;;;;;;;6.27;1.63;;;;;;;;;;5089685;28;20043;-62
2022/07/07 20:54:21;;;;;;;1.40;0.73;;;;;;;;;;5092411;28;20561;-63
2022/07/07 20:56:48;;;;;;;1.37;0.67;;;;;;;;;;5092311;28;20019;-63
2022/07/07 20:59:15;;;;;;;2.03;1.33;;;;;;;;;;5088019;28;20017;-63
2022/07/07 21:01:42;;;;;;;2.80;1.37;;;;;;;;;;5072197;28;20518;-63
2022/07/07 21:04:09;;;;;;;0.80;0.60;;;;;;;;;;5068867;28;20062;-62
2022/07/07 21:06:36;;;;;;;4.87;1.83;;;;;;;;;;5076219;28;20028;-63
2022/07/07 21:09:03;;;;;;;2.30;1.30;;;;;;;;;;5086521;28;20039;-62
2022/07/07 21:11:30;;;;;;;0.70;0.70;;;;;;;;;;5086673;28;20024;-62
2022/07/07 21:13:56;;;;;;;1.30;0.70;;;;;;;;;;5089213;28;20032;-62
2022/07/07 21:16:23;;;;;;;1.47;0.80;;;;;;;;;;5084770;28;20032;-62
2022/07/07 21:18:50;;;;;;;0.90;0.80;;;;;;;;;;5071982;28;20119;-63
2022/07/07 21:21:16;;;;;;;2.03;1.27;;;;;;;;;;5071948;28;20429;-63
2022/07/07 21:23:43;;;;;;;1.43;0.97;;;;;;;;;;5071818;28;20524;-63
2022/07/07 21:26:10;;;;;;;2.30;1.07;;;;;;;;;;5073574;28;20153;-63
2022/07/07 21:28:37;;;;;;;2.17;1.03;;;;;;;;;;5086360;28;20115;-63
2022/07/07 21:31:04;;;;;;;1.40;1.07;;;;;;;;;;5086253;28;20024;-62
2022/07/07 21:33:30;;;;;;;1.50;1.03;;;;;;;;;;5084272;28;20028;-62
2022/07/07 21:35:57;;;;;;;2.70;1.37;;;;;;;;;;5088284;28;20051;-62
2022/07/07 21:38:24;;;;;;;1.07;0.60;;;;;;;;;;5092122;28;20020;-63
2022/07/07 21:40:50;;;;;;;1.23;1.13;;;;;;;;;;5092007;28;20031;-63
2022/07/07 21:43:17;;;;;;;10.27;0.70;;;;;;;;;;5082389;28;20025;-62
2022/07/07 21:45:44;;;;;;;1.63;0.90;;;;;;;;;;5071751;28;20112;-63
2022/07/07 21:48:10;;;;;;;4.50;1.73;;;;;;;;;;5068958;28;20531;-62
2022/07/07 21:50:37;;;;;;;1.70;1.17;;;;;;;;;;5066313;28;20044;-63
2022/07/07 21:53:04;;;;;;;1.90;1.20;;;;;;;;;;5073048;28;20131;-63
2022/07/07 21:55:31;;;;;;;2.37;1.40;;;;;;;;;;5086783;28;20079;-63
2022/07/07 21:57:57;;;;;;;1.07;0.90;;;;;;;;;;5091894;28;20035;-63
2022/07/07 22:00:25;;;;;;;3.63;1.73;;;;;;;;;;5095406;28;20493;-63
2022/07/07 22:02:52;;;;;;;2.60;1.27;;;;;;;;;;5089741;28;20488;-63
2022/07/07 22:08:04;;;;;;;3.08;1.20;;;;;;;;;;5074992;28;20091;-64
2022/07/07 22:10:30;;;;;;;1.33;0.83;;;;;;;;;;5072345;28;20041;-63
2022/07/07 22:12:58;;;;;;;3.40;1.47;;;;;;;;;;5074788;28;20028;-63
2022/07/07 22:15:25;;;;;;;1.73;1.30;;;;;;;;;;5089157;28;20438;-62
2022/07/07 22:17:51;;;;;;;2.67;1.77;;;;;;;;;;5089827;28;20036;-62
2022/07/07 22:20:18;;;;;;;4.33;1.33;;;;;;;;;;5091693;28;20048;-63
2022/07/07 22:22:45;;;;;;;2.80;1.70;;;;;;;;;;5091254;28;20017;-62
2022/07/07 22:25:12;;;;;;;2.13;1.47;;;;;;;;;;5074827;28;20028;-62
2022/07/07 22:27:38;;;;;;;1.70;1.10;;;;;;;;;;5074891;28;20383;-62